createdAt,value
2018-11-13T00:00:38.553Z,13.62
2018-11-13T00:01:38.562Z,13.65
2018-11-13T00:02:38.547Z,13.68
2018-11-13T00:03:38.519Z,13.73
2018-11-13T00:04:38.509Z,13.80
2018-11-13T00:05:38.498Z,13.90
2018-11-13T00:06:38.489Z,13.87
2018-11-13T00:07:38.500Z,13.99
2018-11-13T00:08:38.480Z,14.21
2018-11-13T00:09:38.455Z,14.20
2018-11-13T00:10:38.447Z,14.23
2018-11-13T00:11:38.487Z,14.34
2018-11-13T00:12:38.426Z,14.34
2018-11-13T00:13:38.465Z,14.41
2018-11-13T00:14:38.403Z,14.36
2018-11-13T00:15:38.394Z,14.38
2018-11-13T00:16:38.403Z,14.53
2018-11-13T00:17:38.372Z,14.36
2018-11-13T00:18:38.378Z,14.45
2018-11-13T00:19:38.369Z,14.48
2018-11-13T00:20:38.339Z,14.46
2018-11-13T00:21:38.331Z,14.54
2018-11-13T00:22:38.317Z,14.60
2018-11-13T00:23:38.320Z,14.66
2018-11-13T00:24:38.331Z,14.54
2018-11-13T00:25:38.283Z,14.67
2018-11-13T00:26:38.274Z,14.57
2018-11-13T00:27:38.357Z,14.63
2018-11-13T00:28:38.269Z,14.66
2018-11-13T00:29:38.239Z,14.64
2018-11-13T00:30:38.275Z,14.64
2018-11-13T00:31:38.220Z,14.69
2018-11-13T00:32:38.212Z,14.74
2018-11-13T00:33:38.215Z,14.78
2018-11-13T00:34:38.189Z,14.75
2018-11-13T00:35:38.181Z,14.75
2018-11-13T00:36:38.205Z,14.78
2018-11-13T00:37:38.154Z,14.71
2018-11-13T00:38:38.155Z,14.72
2018-11-13T00:39:38.137Z,14.75
2018-11-13T00:40:38.124Z,14.74
2018-11-13T00:41:38.112Z,14.72
2018-11-13T00:42:38.114Z,14.63
2018-11-13T00:43:38.106Z,14.63
2018-11-13T00:44:38.080Z,14.59
2018-11-13T00:45:38.203Z,14.57
2018-11-13T00:46:38.058Z,14.61
2018-11-13T00:47:38.048Z,14.60
2018-11-13T00:48:38.100Z,14.59
2018-11-13T00:49:38.029Z,14.71
2018-11-13T00:50:38.106Z,14.56
2018-11-13T00:51:38.006Z,14.45
2018-11-13T00:52:37.994Z,14.38
2018-11-13T00:53:37.999Z,14.30
2018-11-13T00:54:37.997Z,14.29
2018-11-13T00:55:37.963Z,14.27
2018-11-13T00:56:37.950Z,14.27
2018-11-13T00:57:37.945Z,14.34
2018-11-13T00:58:37.943Z,14.26
2018-11-13T00:59:37.921Z,14.27
2018-11-13T01:00:37.970Z,14.27
2018-11-13T01:01:37.895Z,14.29
2018-11-13T01:02:37.885Z,14.21
2018-11-13T01:03:37.888Z,14.02
2018-11-13T01:04:37.868Z,14.02
2018-11-13T01:05:37.897Z,13.90
2018-11-13T01:06:37.868Z,13.94
2018-11-13T01:07:37.882Z,13.91
2018-11-13T01:08:37.834Z,13.76
2018-11-13T01:09:37.813Z,13.71
2018-11-13T01:10:37.799Z,13.69
2018-11-13T01:11:37.822Z,13.53
2018-11-13T01:12:37.818Z,13.39
2018-11-13T01:13:37.784Z,13.32
2018-11-13T01:14:37.757Z,13.27
2018-11-13T01:15:37.747Z,13.24
2018-11-13T01:16:37.736Z,13.12
2018-11-13T01:17:37.726Z,13.04
2018-11-13T01:18:37.752Z,13.01
2018-11-13T01:19:37.704Z,12.96
2018-11-13T01:20:37.690Z,13.01
2018-11-13T01:21:37.679Z,13.04
2018-11-13T01:22:37.671Z,12.89
2018-11-13T01:23:37.674Z,12.99
2018-11-13T01:24:37.695Z,13.19
2018-11-13T01:25:37.686Z,13.38
2018-11-13T01:26:37.627Z,13.63
2018-11-13T01:27:37.614Z,13.91
2018-11-13T01:28:37.620Z,13.96
2018-11-13T01:29:37.595Z,14.06
2018-11-13T01:30:37.625Z,14.29
2018-11-13T01:31:37.571Z,14.24
2018-11-13T01:32:37.562Z,14.39
2018-11-13T01:33:37.565Z,14.41
2018-11-13T01:34:37.543Z,14.46
2018-11-13T01:35:37.533Z,14.44
2018-11-13T01:36:37.548Z,14.57
2018-11-13T01:37:37.510Z,14.57
2018-11-13T01:38:37.510Z,14.57
2018-11-13T01:39:37.492Z,14.64
2018-11-13T01:40:37.474Z,14.75
2018-11-13T01:41:37.473Z,14.85
2018-11-13T01:42:37.485Z,14.93
2018-11-13T01:43:37.456Z,14.93
2018-11-13T01:44:37.430Z,14.91
2018-11-13T01:45:37.458Z,14.87
2018-11-13T01:46:37.410Z,14.80
2018-11-13T01:47:37.401Z,14.67
2018-11-13T01:48:37.428Z,14.67
2018-11-13T01:49:37.390Z,14.80
2018-11-13T01:50:37.366Z,14.86
2018-11-13T01:51:37.355Z,14.98
2018-11-13T01:52:37.347Z,14.86
2018-11-13T01:53:37.346Z,14.90
2018-11-13T01:54:37.354Z,14.93
2018-11-13T01:55:37.319Z,14.86
2018-11-13T01:56:37.302Z,14.91
2018-11-13T01:57:37.291Z,14.94
2018-11-13T01:58:37.297Z,14.93
2018-11-13T01:59:37.274Z,14.93
2018-11-13T02:00:37.292Z,14.93
2018-11-13T02:01:37.249Z,14.95
2018-11-13T02:02:37.239Z,14.86
2018-11-13T02:03:37.242Z,14.85
2018-11-13T02:04:37.218Z,14.85
2018-11-13T02:05:37.206Z,14.78
2018-11-13T02:06:37.232Z,14.79
2018-11-13T02:07:37.184Z,14.93
2018-11-13T02:08:37.189Z,15.11
2018-11-13T02:09:37.165Z,15.25
2018-11-13T02:10:37.156Z,15.41
2018-11-13T02:11:37.143Z,15.46
2018-11-13T02:12:37.159Z,15.51
2018-11-13T02:13:37.133Z,15.62
2018-11-13T02:14:37.115Z,15.59
2018-11-13T02:15:37.100Z,15.55
2018-11-13T02:16:37.091Z,15.68
2018-11-13T02:17:37.082Z,15.71
2018-11-13T02:18:37.111Z,15.71
2018-11-13T02:19:37.061Z,15.74
2018-11-13T02:20:37.052Z,15.85
2018-11-13T02:21:37.037Z,15.81
2018-11-13T02:22:37.025Z,15.77
2018-11-13T02:23:37.027Z,15.80
2018-11-13T02:24:37.031Z,15.91
2018-11-13T02:25:36.994Z,15.86
2018-11-13T02:26:36.985Z,15.85
2018-11-13T02:27:36.974Z,15.95
2018-11-13T02:28:36.977Z,15.96
2018-11-13T02:29:36.952Z,15.98
2018-11-13T02:30:36.963Z,16.01
2018-11-13T02:31:36.931Z,15.99
2018-11-13T02:32:36.920Z,15.99
2018-11-13T02:33:36.935Z,15.98
2018-11-13T02:34:36.899Z,15.99
2018-11-13T02:35:36.921Z,16.06
2018-11-13T02:36:36.901Z,16.07
2018-11-13T02:37:36.876Z,16.11
2018-11-13T02:38:36.869Z,16.04
2018-11-13T02:39:36.845Z,16.06
2018-11-13T02:40:36.839Z,16.13
2018-11-13T02:41:36.823Z,16.11
2018-11-13T02:42:36.837Z,16.07
2018-11-13T02:43:36.816Z,16.10
2018-11-13T02:44:36.792Z,16.07
2018-11-13T02:45:36.780Z,16.11
2018-11-13T02:46:36.769Z,16.07
2018-11-13T02:47:36.760Z,16.16
2018-11-13T02:48:36.801Z,16.10
2018-11-13T02:49:36.739Z,16.11
2018-11-13T02:50:36.730Z,16.08
2018-11-13T02:51:36.718Z,16.08
2018-11-13T02:52:36.705Z,16.11
2018-11-13T02:53:36.696Z,16.10
2018-11-13T02:54:36.714Z,16.14
2018-11-13T02:55:36.675Z,16.03
2018-11-13T02:56:36.667Z,16.16
2018-11-13T02:57:36.654Z,16.16
2018-11-13T02:58:36.646Z,16.13
2018-11-13T02:59:36.644Z,16.14
2018-11-13T03:00:36.641Z,16.11
2018-11-13T03:01:36.610Z,16.04
2018-11-13T03:02:36.606Z,15.96
2018-11-13T03:03:36.588Z,15.81
2018-11-13T03:04:36.590Z,15.67
2018-11-13T03:05:36.567Z,15.51
2018-11-13T03:06:36.587Z,15.43
2018-11-13T03:07:36.547Z,15.22
2018-11-13T03:08:36.536Z,15.19
2018-11-13T03:09:36.535Z,14.97
2018-11-13T03:10:36.513Z,14.86
2018-11-13T03:11:36.502Z,14.71
2018-11-13T03:12:36.556Z,14.60
2018-11-13T03:13:36.554Z,14.52
2018-11-13T03:14:36.485Z,14.35
2018-11-13T03:15:36.461Z,14.26
2018-11-13T03:16:36.456Z,14.08
2018-11-13T03:17:36.440Z,13.93
2018-11-13T03:18:36.464Z,13.90
2018-11-13T03:19:36.428Z,13.79
2018-11-13T03:20:36.413Z,13.72
2018-11-13T03:21:36.397Z,13.57
2018-11-13T03:22:36.401Z,13.54
2018-11-13T03:23:36.373Z,13.41
2018-11-13T03:24:36.409Z,13.36
2018-11-13T03:25:36.354Z,13.31
2018-11-13T03:26:36.339Z,13.19
2018-11-13T03:27:36.332Z,13.12
2018-11-13T03:28:36.319Z,13.04
2018-11-13T03:29:36.361Z,12.99
2018-11-13T03:30:36.321Z,13.07
2018-11-13T03:31:36.472Z,13.04
2018-11-13T03:32:36.279Z,13.04
2018-11-13T03:33:36.265Z,13.01
2018-11-13T03:34:36.272Z,12.96
2018-11-13T03:35:36.246Z,12.98
2018-11-13T03:36:36.261Z,13.03
2018-11-13T03:37:36.225Z,13.07
2018-11-13T03:38:36.212Z,13.01
2018-11-13T03:39:36.217Z,13.03
2018-11-13T03:40:36.189Z,12.99
2018-11-13T03:41:36.180Z,13.03
2018-11-13T03:42:36.185Z,12.92
2018-11-13T03:43:36.160Z,12.92
2018-11-13T03:44:36.159Z,12.94
2018-11-13T03:45:36.135Z,13.06
2018-11-13T03:46:36.126Z,13.09
2018-11-13T03:47:36.115Z,13.12
2018-11-13T03:48:36.149Z,13.12
2018-11-13T03:49:36.106Z,13.09
2018-11-13T03:50:36.084Z,13.09
2018-11-13T03:51:36.074Z,13.12
2018-11-13T03:52:36.061Z,12.96
2018-11-13T03:53:36.050Z,12.98
2018-11-13T03:54:36.104Z,12.96
2018-11-13T03:55:36.032Z,12.96
2018-11-13T03:56:36.019Z,12.98
2018-11-13T03:57:36.009Z,12.95
2018-11-13T03:58:35.996Z,12.87
2018-11-13T03:59:36.004Z,13.04
2018-11-13T04:00:35.998Z,12.96
2018-11-13T04:01:35.965Z,12.99
2018-11-13T04:02:35.953Z,12.95
2018-11-13T04:03:35.943Z,12.99
2018-11-13T04:04:35.947Z,12.92
2018-11-13T04:05:35.921Z,12.91
2018-11-13T04:06:35.933Z,12.91
2018-11-13T04:07:35.898Z,12.84
2018-11-13T04:08:35.888Z,12.81
2018-11-13T04:09:35.891Z,12.88
2018-11-13T04:10:35.869Z,12.74
2018-11-13T04:11:35.869Z,12.76
2018-11-13T04:12:35.867Z,12.70
2018-11-13T04:13:35.836Z,12.67
2018-11-13T04:14:35.838Z,12.66
2018-11-13T04:15:35.813Z,12.54
2018-11-13T04:16:35.811Z,12.54
2018-11-13T04:17:35.791Z,12.61
2018-11-13T04:18:35.830Z,12.63
2018-11-13T04:19:35.787Z,12.52
2018-11-13T04:20:35.758Z,12.49
2018-11-13T04:21:35.749Z,12.67
2018-11-13T04:22:35.736Z,12.67
2018-11-13T04:23:35.727Z,12.46
2018-11-13T04:24:35.758Z,12.52
2018-11-13T04:25:35.704Z,12.54
2018-11-13T04:26:35.702Z,12.55
2018-11-13T04:27:35.684Z,12.61
2018-11-13T04:28:35.673Z,12.58
2018-11-13T04:29:35.679Z,12.44
2018-11-13T04:30:35.729Z,12.55
2018-11-13T04:31:35.644Z,12.48
2018-11-13T04:32:35.629Z,12.55
2018-11-13T04:33:35.621Z,12.59
2018-11-13T04:34:35.623Z,12.59
2018-11-13T04:35:35.596Z,12.54
2018-11-13T04:36:35.617Z,12.52
2018-11-13T04:37:35.575Z,12.43
2018-11-13T04:38:35.562Z,12.52
2018-11-13T04:39:35.567Z,12.55
2018-11-13T04:40:35.543Z,12.43
2018-11-13T04:41:35.532Z,12.61
2018-11-13T04:42:35.536Z,12.46
2018-11-13T04:43:35.510Z,12.62
2018-11-13T04:44:35.517Z,12.54
2018-11-13T04:45:35.488Z,12.61
2018-11-13T04:46:35.478Z,12.56
2018-11-13T04:47:35.529Z,12.52
2018-11-13T04:48:35.457Z,12.49
2018-11-13T04:49:35.463Z,12.51
2018-11-13T04:50:35.438Z,12.48
2018-11-13T04:51:35.510Z,12.52
2018-11-13T04:52:35.413Z,12.61
2018-11-13T04:53:35.439Z,12.52
2018-11-13T04:54:35.404Z,12.66
2018-11-13T04:55:35.382Z,12.55
2018-11-13T04:56:35.369Z,12.49
2018-11-13T04:57:35.360Z,12.52
2018-11-13T04:58:35.349Z,12.40
2018-11-13T04:59:35.373Z,12.51
2018-11-13T05:00:35.325Z,12.41
2018-11-13T05:01:35.317Z,12.51
2018-11-13T05:02:35.310Z,12.55
2018-11-13T05:03:35.300Z,12.61
2018-11-13T05:04:35.300Z,12.46
2018-11-13T05:05:35.297Z,12.59
2018-11-13T05:06:35.263Z,12.54
2018-11-13T05:07:35.252Z,12.56
2018-11-13T05:08:35.241Z,12.51
2018-11-13T05:09:35.244Z,12.51
2018-11-13T05:10:35.219Z,12.49
2018-11-13T05:11:35.227Z,12.49
2018-11-13T05:12:35.197Z,12.43
2018-11-13T05:13:35.185Z,12.40
2018-11-13T05:14:35.191Z,12.54
2018-11-13T05:15:35.165Z,12.54
2018-11-13T05:16:35.153Z,12.62
2018-11-13T05:17:35.182Z,12.54
2018-11-13T05:18:35.131Z,12.54
2018-11-13T05:19:35.138Z,12.51
2018-11-13T05:20:35.115Z,12.49
2018-11-13T05:21:35.099Z,12.59
2018-11-13T05:22:35.087Z,12.51
2018-11-13T05:23:35.156Z,12.51
2018-11-13T05:24:35.079Z,12.48
2018-11-13T05:25:35.057Z,12.56
2018-11-13T05:26:35.045Z,12.54
2018-11-13T05:27:35.034Z,12.51
2018-11-13T05:28:35.023Z,12.41
2018-11-13T05:29:35.055Z,12.51
2018-11-13T05:30:35.006Z,12.48
2018-11-13T05:31:34.992Z,12.51
2018-11-13T05:32:34.981Z,12.49
2018-11-13T05:33:34.977Z,12.46
2018-11-13T05:34:34.973Z,12.37
2018-11-13T05:35:34.972Z,12.44
2018-11-13T05:36:34.938Z,12.33
2018-11-13T05:37:34.927Z,12.31
2018-11-13T05:38:34.917Z,12.33
2018-11-13T05:39:34.924Z,12.30
2018-11-13T05:40:34.896Z,12.29
2018-11-13T05:41:34.959Z,12.41
2018-11-13T05:42:34.872Z,12.34
2018-11-13T05:43:34.864Z,12.40
2018-11-13T05:44:34.866Z,12.38
2018-11-13T05:45:34.839Z,12.25
2018-11-13T05:46:34.828Z,12.26
2018-11-13T05:47:34.846Z,12.30
2018-11-13T05:48:34.810Z,12.16
2018-11-13T05:49:34.823Z,12.08
2018-11-13T05:50:34.785Z,12.16
2018-11-13T05:51:34.775Z,12.11
2018-11-13T05:52:34.763Z,12.08
2018-11-13T05:53:34.771Z,12.05
2018-11-13T05:54:34.755Z,12.08
2018-11-13T05:55:34.730Z,12.16
2018-11-13T05:56:34.720Z,12.16
2018-11-13T05:57:34.709Z,12.13
2018-11-13T05:58:34.698Z,12.11
2018-11-13T05:59:34.769Z,12.08
2018-11-13T06:00:34.680Z,11.98
2018-11-13T06:01:34.667Z,12.01
2018-11-13T06:02:34.659Z,11.98
2018-11-13T06:03:34.643Z,12.01
2018-11-13T06:04:34.648Z,11.97
2018-11-13T06:05:34.644Z,12.01
2018-11-13T06:06:34.612Z,11.96
2018-11-13T06:07:34.601Z,11.97
2018-11-13T06:08:34.730Z,11.90
2018-11-13T06:09:34.597Z,11.96
2018-11-13T06:10:34.568Z,11.97
2018-11-13T06:11:34.577Z,11.90
2018-11-13T06:12:34.546Z,11.88
2018-11-13T06:13:34.555Z,11.96
2018-11-13T06:14:34.543Z,11.85
2018-11-13T06:15:34.515Z,11.87
2018-11-13T06:16:34.506Z,11.84
2018-11-13T06:17:34.518Z,11.90
2018-11-13T06:18:34.483Z,11.79
2018-11-13T06:19:34.486Z,11.78
2018-11-13T06:20:34.465Z,11.85
2018-11-13T06:21:34.457Z,11.75
2018-11-13T06:22:34.444Z,11.72
2018-11-13T06:23:34.453Z,11.77
2018-11-13T06:24:34.419Z,11.78
2018-11-13T06:25:34.422Z,11.66
2018-11-13T06:26:34.397Z,11.57
2018-11-13T06:27:34.386Z,11.69
2018-11-13T06:28:34.374Z,11.66
2018-11-13T06:29:34.391Z,11.64
2018-11-13T06:30:34.370Z,11.57
2018-11-13T06:31:34.343Z,11.63
2018-11-13T06:32:34.333Z,11.64
2018-11-13T06:33:34.324Z,11.59
2018-11-13T06:34:34.311Z,11.63
2018-11-13T06:35:34.359Z,11.60
2018-11-13T06:36:34.289Z,11.63
2018-11-13T06:37:34.297Z,11.57
2018-11-13T06:38:34.274Z,11.62
2018-11-13T06:39:34.260Z,11.63
2018-11-13T06:40:34.261Z,11.57
2018-11-13T06:41:34.267Z,11.57
2018-11-13T06:42:34.222Z,11.54
2018-11-13T06:43:34.213Z,11.46
2018-11-13T06:44:34.204Z,11.57
2018-11-13T06:45:34.205Z,11.53
2018-11-13T06:46:34.185Z,11.48
2018-11-13T06:47:34.190Z,11.59
2018-11-13T06:48:34.158Z,11.53
2018-11-13T06:49:34.192Z,11.48
2018-11-13T06:50:34.153Z,11.62
2018-11-13T06:51:34.126Z,11.57
2018-11-13T06:52:34.118Z,11.54
2018-11-13T06:53:34.118Z,11.54
2018-11-13T06:54:34.095Z,11.54
2018-11-13T06:55:34.102Z,11.54
2018-11-13T06:56:34.074Z,11.56
2018-11-13T06:57:34.080Z,11.53
2018-11-13T06:58:34.055Z,11.59
2018-11-13T06:59:34.056Z,11.53
2018-11-13T07:00:34.053Z,11.56
2018-11-13T07:01:34.020Z,11.38
2018-11-13T07:02:34.010Z,11.45
2018-11-13T07:03:33.998Z,11.48
2018-11-13T07:04:33.989Z,11.44
2018-11-13T07:05:34.013Z,11.42
2018-11-13T07:06:33.967Z,11.46
2018-11-13T07:07:33.956Z,11.48
2018-11-13T07:08:33.945Z,11.48
2018-11-13T07:09:33.933Z,11.38
2018-11-13T07:10:33.964Z,11.45
2018-11-13T07:11:33.948Z,11.48
2018-11-13T07:12:33.903Z,11.38
2018-11-13T07:13:33.891Z,11.44
2018-11-13T07:14:33.881Z,11.45
2018-11-13T07:15:33.889Z,11.42
2018-11-13T07:16:33.862Z,11.31
2018-11-13T07:17:33.875Z,11.38
2018-11-13T07:18:33.892Z,11.33
2018-11-13T07:19:33.830Z,11.39
2018-11-13T07:20:33.834Z,11.38
2018-11-13T07:21:33.807Z,11.33
2018-11-13T07:22:33.796Z,11.28
2018-11-13T07:23:33.827Z,11.27
2018-11-13T07:24:33.780Z,11.27
2018-11-13T07:25:33.889Z,11.27
2018-11-13T07:26:33.753Z,11.27
2018-11-13T07:27:33.849Z,11.33
2018-11-13T07:28:33.732Z,11.28
2018-11-13T07:29:33.756Z,11.27
2018-11-13T07:30:33.725Z,11.28
2018-11-13T07:31:33.702Z,11.31
2018-11-13T07:32:33.690Z,11.35
2018-11-13T07:33:33.749Z,11.30
2018-11-13T07:34:33.670Z,11.27
2018-11-13T07:35:33.691Z,11.27
2018-11-13T07:36:33.645Z,11.36
2018-11-13T07:37:33.636Z,11.33
2018-11-13T07:38:33.626Z,11.28
2018-11-13T07:39:33.617Z,11.35
2018-11-13T07:40:33.615Z,11.24
2018-11-13T07:41:33.619Z,11.26
2018-11-13T07:42:33.585Z,11.28
2018-11-13T07:43:33.571Z,11.28
2018-11-13T07:44:33.560Z,11.26
2018-11-13T07:45:33.562Z,11.30
2018-11-13T07:46:33.588Z,11.21
2018-11-13T07:47:33.660Z,11.23
2018-11-13T07:48:33.522Z,11.28
2018-11-13T07:49:33.508Z,11.31
2018-11-13T07:50:33.507Z,11.26
2018-11-13T07:51:33.485Z,11.28
2018-11-13T07:52:33.477Z,11.17
2018-11-13T07:53:33.489Z,11.19
2018-11-13T07:54:33.461Z,11.26
2018-11-13T07:55:33.459Z,11.26
2018-11-13T07:56:33.433Z,11.21
2018-11-13T07:57:33.423Z,11.17
2018-11-13T07:58:33.462Z,11.11
2018-11-13T07:59:33.421Z,11.06
2018-11-13T08:00:33.407Z,11.12
2018-11-13T08:01:33.382Z,11.12
2018-11-13T08:02:33.371Z,11.13
2018-11-13T08:03:33.373Z,11.08
2018-11-13T08:04:33.351Z,11.11
2018-11-13T08:05:33.394Z,11.23
2018-11-13T08:06:33.411Z,11.28
2018-11-13T08:07:33.316Z,11.13
2018-11-13T08:08:33.309Z,11.26
2018-11-13T08:09:33.296Z,11.26
2018-11-13T08:10:33.284Z,11.27
2018-11-13T08:11:33.302Z,11.19
2018-11-13T08:12:33.261Z,11.26
2018-11-13T08:13:33.390Z,11.26
2018-11-13T08:14:33.255Z,11.26
2018-11-13T08:15:33.287Z,11.33
2018-11-13T08:16:33.315Z,11.28
2018-11-13T08:17:33.214Z,11.28
2018-11-13T08:18:33.323Z,11.27
2018-11-13T08:19:33.193Z,11.35
2018-11-13T08:20:33.178Z,11.35
2018-11-13T08:21:33.182Z,11.28
2018-11-13T08:22:33.156Z,11.23
2018-11-13T08:23:33.178Z,11.28
2018-11-13T08:24:33.133Z,11.26
2018-11-13T08:25:33.130Z,11.23
2018-11-13T08:26:33.125Z,11.17
2018-11-13T08:27:33.157Z,11.26
2018-11-13T08:28:33.104Z,11.24
2018-11-13T08:29:33.131Z,11.24
2018-11-13T08:30:33.067Z,11.31
2018-11-13T08:31:33.088Z,11.30
2018-11-13T08:32:33.050Z,11.31
2018-11-13T08:33:33.036Z,11.31
2018-11-13T08:34:33.028Z,11.38
2018-11-13T08:35:33.069Z,11.33
2018-11-13T08:36:33.022Z,11.33
2018-11-13T08:37:32.995Z,11.36
2018-11-13T08:38:32.981Z,11.39
2018-11-13T08:39:32.978Z,11.42
2018-11-13T08:40:32.966Z,11.41
2018-11-13T08:41:33.007Z,11.46
2018-11-13T08:42:32.941Z,11.44
2018-11-13T08:43:32.929Z,11.48
2018-11-13T08:44:32.923Z,11.38
2018-11-13T08:45:32.906Z,11.59
2018-11-13T08:46:32.910Z,11.59
2018-11-13T08:47:32.923Z,11.60
2018-11-13T08:48:32.875Z,11.56
2018-11-13T08:49:32.863Z,11.57
2018-11-13T08:50:32.947Z,11.49
2018-11-13T08:51:32.852Z,11.54
2018-11-13T08:52:32.830Z,11.51
2018-11-13T08:53:32.848Z,11.49
2018-11-13T08:54:32.810Z,11.51
2018-11-13T08:55:32.796Z,11.44
2018-11-13T08:56:32.798Z,11.44
2018-11-13T08:57:32.784Z,11.42
2018-11-13T08:58:32.853Z,11.41
2018-11-13T08:59:32.814Z,11.45
2018-11-13T09:00:32.744Z,11.44
2018-11-13T09:01:32.749Z,11.45
2018-11-13T09:02:32.722Z,11.42
2018-11-13T09:03:32.763Z,11.46
2018-11-13T09:04:32.699Z,11.53
2018-11-13T09:05:32.703Z,11.54
2018-11-13T09:06:32.696Z,11.54
2018-11-13T09:07:32.667Z,11.57
2018-11-13T09:08:32.655Z,11.62
2018-11-13T09:09:32.645Z,11.53
2018-11-13T09:10:32.635Z,11.56
2018-11-13T09:11:32.659Z,11.57
2018-11-13T09:12:32.728Z,11.60
2018-11-13T09:13:32.602Z,11.60
2018-11-13T09:14:32.590Z,11.66
2018-11-13T09:15:32.582Z,11.63
2018-11-13T09:16:32.584Z,11.63
2018-11-13T09:17:32.583Z,11.62
2018-11-13T09:18:32.547Z,11.63
2018-11-13T09:19:32.712Z,11.62
2018-11-13T09:20:32.526Z,11.62
2018-11-13T09:21:32.527Z,11.63
2018-11-13T09:22:32.542Z,11.56
2018-11-13T09:23:32.494Z,11.60
2018-11-13T09:24:32.488Z,11.64
2018-11-13T09:25:32.474Z,11.63
2018-11-13T09:26:32.481Z,11.72
2018-11-13T09:27:32.449Z,11.69
2018-11-13T09:28:32.471Z,11.69
2018-11-13T09:29:32.435Z,11.64
2018-11-13T09:30:32.773Z,11.74
2018-11-13T09:31:32.447Z,11.75
2018-11-13T09:32:32.398Z,11.74
2018-11-13T09:33:32.431Z,11.77
2018-11-13T09:34:32.405Z,11.79
2018-11-13T09:35:32.367Z,11.70
2018-11-13T09:36:32.370Z,11.72
2018-11-13T09:37:32.402Z,11.67
2018-11-13T09:38:32.331Z,11.70
2018-11-13T09:39:32.318Z,11.72
2018-11-13T09:40:32.333Z,11.74
2018-11-13T09:41:32.310Z,11.66
2018-11-13T09:42:32.285Z,11.77
2018-11-13T09:43:32.275Z,11.67
2018-11-13T09:44:32.269Z,11.70
2018-11-13T09:45:32.257Z,11.70
2018-11-13T09:46:32.370Z,11.81
2018-11-13T09:47:32.243Z,11.84
2018-11-13T09:48:32.225Z,11.77
2018-11-13T09:49:32.214Z,11.87
2018-11-13T09:50:32.229Z,11.72
2018-11-13T09:51:32.212Z,11.74
2018-11-13T09:52:32.208Z,11.69
2018-11-13T09:53:32.205Z,11.74
2018-11-13T09:54:32.157Z,11.81
2018-11-13T09:55:32.163Z,11.57
2018-11-13T09:56:32.269Z,11.59
2018-11-13T09:57:32.139Z,11.63
2018-11-13T09:58:32.158Z,11.57
2018-11-13T09:59:32.101Z,11.63
2018-11-13T10:00:32.386Z,11.69
2018-11-13T10:01:32.638Z,11.67
2018-11-13T10:02:32.707Z,11.57
2018-11-13T10:03:32.509Z,11.74
2018-11-13T10:04:32.702Z,11.60
2018-11-13T10:05:32.135Z,11.78
2018-11-13T10:06:32.028Z,11.64
2018-11-13T10:07:32.033Z,11.64
2018-11-13T10:08:32.008Z,11.75
2018-11-13T10:09:31.993Z,11.78
2018-11-13T10:10:32.070Z,11.81
2018-11-13T10:11:31.990Z,11.88
2018-11-13T10:12:31.974Z,11.81
2018-11-13T10:13:32.014Z,11.96
2018-11-13T10:14:31.941Z,11.87
2018-11-13T10:15:31.931Z,11.81
2018-11-13T10:16:31.950Z,11.88
2018-11-13T10:17:31.992Z,11.90
2018-11-13T10:18:31.896Z,11.84
2018-11-13T10:19:31.886Z,11.82
2018-11-13T10:20:31.873Z,11.93
2018-11-13T10:21:31.883Z,11.93
2018-11-13T10:22:31.900Z,11.98
2018-11-13T10:23:31.848Z,12.00
2018-11-13T10:24:31.832Z,12.11
2018-11-13T10:25:31.820Z,12.07
2018-11-13T10:26:31.930Z,12.08
2018-11-13T10:27:31.811Z,12.08
2018-11-13T10:28:31.826Z,12.08
2018-11-13T10:29:31.796Z,12.18
2018-11-13T10:30:31.772Z,12.13
2018-11-13T10:31:31.755Z,12.19
2018-11-13T10:32:31.761Z,12.25
2018-11-13T10:33:31.749Z,12.36
2018-11-13T10:34:31.730Z,12.25
2018-11-13T10:35:31.711Z,12.34
2018-11-13T10:36:31.701Z,12.16
2018-11-13T10:37:31.762Z,12.15
2018-11-13T10:38:31.688Z,12.12
2018-11-13T10:39:31.672Z,12.26
2018-11-13T10:40:31.823Z,12.25
2018-11-13T10:41:31.747Z,12.23
2018-11-13T10:42:31.650Z,12.36
2018-11-13T10:43:31.626Z,12.38
2018-11-13T10:44:31.613Z,12.41
2018-11-13T10:45:31.611Z,12.52
2018-11-13T10:46:31.644Z,12.40
2018-11-13T10:47:31.604Z,12.46
2018-11-13T10:48:31.573Z,12.52
2018-11-13T10:49:31.566Z,12.43
2018-11-13T10:50:31.700Z,12.51
2018-11-13T10:51:31.542Z,12.40
2018-11-13T10:52:31.563Z,12.40
2018-11-13T10:53:31.520Z,12.40
2018-11-13T10:54:31.507Z,12.41
2018-11-13T10:55:31.498Z,12.33
2018-11-13T10:56:31.650Z,12.40
2018-11-13T10:57:31.507Z,12.41
2018-11-13T10:58:31.510Z,12.40
2018-11-13T10:59:31.456Z,12.40
2018-11-13T11:00:31.444Z,12.38
2018-11-13T11:01:31.433Z,12.43
2018-11-13T11:02:31.571Z,12.40
2018-11-13T11:03:31.413Z,12.43
2018-11-13T11:04:31.477Z,12.40
2018-11-13T11:05:31.391Z,12.40
2018-11-13T11:06:31.377Z,12.38
2018-11-13T11:07:31.379Z,12.38
2018-11-13T11:08:31.355Z,12.36
2018-11-13T11:09:31.348Z,12.38
2018-11-13T11:10:31.387Z,12.34
2018-11-13T11:11:31.380Z,12.31
2018-11-13T11:12:31.333Z,12.34
2018-11-13T11:13:31.340Z,12.30
2018-11-13T11:14:31.300Z,12.33
2018-11-13T11:15:31.289Z,12.26
2018-11-13T11:16:31.275Z,12.23
2018-11-13T11:17:31.319Z,12.29
2018-11-13T11:18:31.286Z,12.41
2018-11-13T11:19:31.318Z,12.34
2018-11-13T11:20:31.230Z,12.38
2018-11-13T11:21:31.219Z,12.40
2018-11-13T11:22:31.219Z,12.41
2018-11-13T11:23:31.265Z,12.38
2018-11-13T11:24:31.184Z,12.26
2018-11-13T11:25:31.299Z,12.36
2018-11-13T11:26:31.251Z,12.29
2018-11-13T11:27:31.163Z,12.23
2018-11-13T11:28:31.141Z,12.29
2018-11-13T11:29:31.183Z,12.31
2018-11-13T11:30:31.121Z,12.30
2018-11-13T11:31:31.108Z,12.31
2018-11-13T11:32:31.111Z,12.29
2018-11-13T11:33:31.092Z,12.31
2018-11-13T11:34:31.074Z,12.29
2018-11-13T11:35:31.107Z,12.29
2018-11-13T11:36:31.055Z,12.31
2018-11-13T11:37:31.055Z,12.30
2018-11-13T11:38:31.112Z,12.38
2018-11-13T11:39:31.028Z,12.25
2018-11-13T11:40:31.014Z,12.38
2018-11-13T11:41:31.028Z,12.43
2018-11-13T11:42:31.022Z,12.41
2018-11-13T11:43:30.980Z,12.40
2018-11-13T11:44:31.055Z,12.36
2018-11-13T11:45:30.960Z,12.43
2018-11-13T11:46:30.947Z,12.41
2018-11-13T11:47:30.992Z,12.51
2018-11-13T11:48:30.929Z,12.52
2018-11-13T11:49:30.912Z,12.41
2018-11-13T11:50:30.905Z,12.52
2018-11-13T11:51:30.894Z,12.52
2018-11-13T11:52:30.899Z,12.61
2018-11-13T11:53:30.909Z,12.55
2018-11-13T11:54:30.860Z,12.63
2018-11-13T11:55:30.854Z,12.55
2018-11-13T11:56:30.846Z,12.56
2018-11-13T11:57:30.839Z,12.56
2018-11-13T11:58:30.819Z,12.56
2018-11-13T11:59:30.867Z,12.61
2018-11-13T12:00:30.816Z,12.58
2018-11-13T12:01:30.784Z,12.67
2018-11-13T12:02:30.793Z,12.67
2018-11-13T12:03:30.769Z,12.77
2018-11-13T12:04:30.754Z,12.81
2018-11-13T12:05:30.785Z,12.71
2018-11-13T12:06:30.730Z,12.89
2018-11-13T12:07:30.733Z,12.89
2018-11-13T12:08:30.708Z,12.96
2018-11-13T12:09:30.700Z,13.10
2018-11-13T12:10:30.688Z,13.29
2018-11-13T12:11:30.697Z,13.36
2018-11-13T12:12:30.683Z,13.54
2018-11-13T12:13:30.660Z,13.51
2018-11-13T12:14:30.643Z,13.57
2018-11-13T12:15:30.636Z,13.38
2018-11-13T12:16:30.630Z,13.36
2018-11-13T12:17:30.659Z,13.36
2018-11-13T12:18:30.610Z,13.54
2018-11-13T12:19:30.626Z,13.35
2018-11-13T12:20:30.588Z,13.46
2018-11-13T12:21:30.570Z,13.55
2018-11-13T12:22:30.584Z,13.48
2018-11-13T12:23:30.613Z,13.55
2018-11-13T12:24:30.551Z,13.57
2018-11-13T12:25:30.553Z,13.55
2018-11-13T12:26:30.548Z,13.61
2018-11-13T12:27:30.524Z,13.62
2018-11-13T12:28:30.500Z,13.66
2018-11-13T12:29:30.510Z,13.72
2018-11-13T12:30:30.488Z,13.72
2018-11-13T12:31:30.467Z,13.76
2018-11-13T12:32:30.457Z,13.73
2018-11-13T12:33:30.457Z,13.75
2018-11-13T12:34:30.521Z,13.68
2018-11-13T12:35:30.423Z,13.72
2018-11-13T12:36:30.411Z,13.72
2018-11-13T12:37:30.404Z,13.65
2018-11-13T12:38:30.399Z,13.69
2018-11-13T12:39:30.382Z,13.53
2018-11-13T12:40:30.410Z,13.50
2018-11-13T12:41:30.354Z,13.50
2018-11-13T12:42:30.374Z,13.39
2018-11-13T12:43:30.352Z,13.53
2018-11-13T12:44:30.323Z,13.32
2018-11-13T12:45:30.314Z,13.21
2018-11-13T12:46:30.400Z,13.44
2018-11-13T12:47:30.294Z,13.53
2018-11-13T12:48:30.299Z,13.63
2018-11-13T12:49:30.271Z,13.63
2018-11-13T12:50:30.265Z,13.76
2018-11-13T12:51:30.248Z,13.91
2018-11-13T12:52:30.238Z,14.09